createdAt,value
2024-02-06T00:00:14.864Z,46.32
2024-02-06T00:02:41.426Z,46.65
2024-02-06T00:05:09.849Z,45.83
2024-02-06T00:07:38.580Z,45.82
2024-02-06T00:10:05.202Z,45.88
2024-02-06T00:12:31.812Z,47.02
2024-02-06T00:14:58.349Z,46.66
2024-02-06T00:17:24.914Z,46.12
2024-02-06T00:19:51.660Z,46.39
2024-02-06T00:22:18.395Z,46.61
2024-02-06T00:24:44.973Z,46.82
2024-02-06T00:27:11.535Z,47.14
2024-02-06T00:29:38.075Z,47.43
2024-02-06T00:32:04.652Z,47.53
2024-02-06T00:34:31.401Z,47.83
2024-02-06T00:36:58.120Z,47.70
2024-02-06T00:39:24.693Z,47.37
2024-02-06T00:41:51.262Z,47.83
2024-02-06T00:44:17.808Z,47.74
2024-02-06T00:46:44.337Z,48.22
2024-02-06T00:49:10.997Z,48.09
2024-02-06T00:51:37.828Z,48.31
2024-02-06T00:54:04.462Z,48.11
2024-02-06T00:56:31.021Z,47.62
2024-02-06T00:58:57.924Z,48.34
2024-02-06T01:01:24.592Z,48.23
2024-02-06T01:03:51.283Z,47.21
2024-02-06T01:06:17.873Z,47.45
2024-02-06T01:08:44.462Z,47.33
2024-02-06T01:11:11.045Z,47.58
2024-02-06T01:13:37.744Z,47.80
2024-02-06T01:16:04.506Z,47.45
2024-02-06T01:18:31.214Z,47.31
2024-02-06T01:20:57.841Z,46.55
2024-02-06T01:23:24.550Z,46.70
2024-02-06T01:25:51.090Z,46.12
2024-02-06T01:28:17.699Z,46.10
2024-02-06T01:30:44.314Z,45.75
2024-02-06T01:33:10.975Z,46.19
2024-02-06T01:35:37.629Z,46.33
2024-02-06T01:38:04.170Z,46.80
2024-02-06T01:40:30.768Z,47.03
2024-02-06T01:42:57.386Z,46.94
2024-02-06T01:45:23.941Z,45.97
2024-02-06T01:47:50.505Z,47.00
2024-02-06T01:50:17.207Z,46.33
2024-02-06T01:52:43.834Z,46.05
2024-02-06T01:55:10.402Z,45.77
2024-02-06T01:57:36.965Z,45.48
2024-02-06T02:00:03.529Z,45.19
2024-02-06T02:02:30.113Z,44.82
2024-02-06T02:04:56.705Z,43.66
2024-02-06T02:07:23.449Z,44.20
2024-02-06T02:09:50.100Z,45.44
2024-02-06T02:12:16.654Z,45.14
2024-02-06T02:14:43.221Z,45.60
2024-02-06T02:17:09.761Z,45.68
2024-02-06T02:19:36.415Z,46.17
2024-02-06T02:22:03.150Z,45.74
2024-02-06T02:24:29.772Z,46.53
2024-02-06T02:26:56.340Z,46.27
2024-02-06T02:29:22.902Z,46.50
2024-02-06T02:31:49.462Z,45.62
2024-02-06T02:34:16.204Z,46.59
2024-02-06T02:36:42.901Z,46.28
2024-02-06T02:39:09.455Z,46.61
2024-02-06T02:41:35.998Z,46.60
2024-02-06T02:44:02.538Z,47.27
2024-02-06T02:46:29.158Z,46.02
2024-02-06T02:48:55.838Z,46.24
2024-02-06T02:51:22.432Z,46.82
2024-02-06T02:53:49.066Z,46.76
2024-02-06T02:56:15.783Z,46.97
2024-02-06T02:58:42.491Z,48.09
2024-02-06T03:01:09.139Z,47.97
2024-02-06T03:03:35.778Z,48.36
2024-02-06T03:06:02.420Z,48.00
2024-02-06T03:08:28.978Z,48.23
2024-02-06T03:10:55.535Z,48.51
2024-02-06T03:13:22.097Z,47.50
2024-02-06T03:15:48.666Z,47.10
2024-02-06T03:18:15.306Z,46.32
2024-02-06T03:20:41.914Z,46.02
2024-02-06T03:23:08.493Z,46.28
2024-02-06T03:25:35.063Z,47.21
2024-02-06T03:28:01.643Z,47.30
2024-02-06T03:30:28.216Z,48.31
2024-02-06T03:32:54.798Z,48.33
2024-02-06T03:35:21.527Z,48.11
2024-02-06T03:37:48.152Z,48.19
2024-02-06T03:40:14.728Z,48.86
2024-02-06T03:42:41.333Z,49.03
2024-02-06T03:45:07.912Z,49.06
2024-02-06T03:47:34.491Z,48.66
2024-02-06T03:50:01.187Z,48.60
2024-02-06T03:52:27.777Z,48.57
2024-02-06T03:54:54.403Z,47.02
2024-02-06T03:57:21.770Z,46.53
2024-02-06T03:59:48.458Z,48.29
2024-02-06T04:02:15.278Z,49.69
2024-02-06T04:04:42.082Z,49.33
2024-02-06T04:07:08.950Z,48.07
2024-02-06T04:09:35.561Z,48.83
2024-02-06T04:12:02.168Z,49.55
2024-02-06T04:14:28.773Z,50.39
2024-02-06T04:16:55.318Z,51.38
2024-02-06T04:19:22.001Z,51.83
2024-02-06T04:21:48.602Z,50.35
2024-02-06T04:24:15.154Z,50.02
2024-02-06T04:26:41.704Z,48.91
2024-02-06T04:29:08.249Z,48.20
2024-02-06T04:31:34.976Z,48.70
2024-02-06T04:34:01.749Z,49.29
2024-02-06T04:36:28.431Z,48.66
2024-02-06T04:38:54.999Z,49.42
2024-02-06T04:41:21.553Z,49.36
2024-02-06T04:43:48.087Z,49.37
2024-02-06T04:46:14.718Z,49.62
2024-02-06T04:48:41.311Z,49.18
2024-02-06T04:51:07.902Z,50.62
2024-02-06T04:53:35.331Z,49.60
2024-02-06T04:56:01.885Z,48.76
2024-02-06T04:58:28.566Z,49.46
2024-02-06T05:00:55.233Z,51.17
2024-02-06T05:03:21.832Z,50.17
2024-02-06T05:05:48.433Z,50.35
2024-02-06T05:08:15.100Z,52.19
2024-02-06T05:10:41.777Z,51.95
2024-02-06T05:13:08.558Z,52.72
2024-02-06T05:15:35.236Z,51.55
2024-02-06T05:18:01.989Z,52.67
2024-02-06T05:20:28.678Z,55.22
2024-02-06T05:22:55.269Z,54.74
2024-02-06T05:25:24.539Z,53.46
2024-02-06T05:27:51.681Z,53.67
2024-02-06T05:30:18.238Z,53.02
2024-02-06T05:32:44.811Z,53.44
2024-02-06T05:35:11.526Z,54.41
2024-02-06T05:37:38.385Z,55.80
2024-02-06T05:40:05.079Z,55.79
2024-02-06T05:42:31.649Z,56.96
2024-02-06T05:44:58.193Z,56.86
2024-02-06T05:47:24.861Z,56.73
2024-02-06T05:49:51.661Z,56.11
2024-02-06T05:52:18.341Z,56.61
2024-02-06T05:54:44.924Z,55.58
2024-02-06T05:57:11.480Z,57.33
2024-02-06T05:59:38.046Z,59.59
2024-02-06T06:02:04.889Z,59.15
2024-02-06T06:04:31.833Z,57.99
2024-02-06T06:06:58.687Z,57.31
2024-02-06T06:09:25.340Z,57.01
2024-02-06T06:11:51.923Z,57.92
2024-02-06T06:14:18.484Z,58.25
2024-02-06T06:16:45.071Z,58.03
2024-02-06T06:19:11.793Z,58.30
2024-02-06T06:21:40.675Z,56.66
2024-02-06T06:24:08.078Z,56.54
2024-02-06T06:26:34.647Z,55.06
2024-02-06T06:29:01.205Z,54.82
2024-02-06T06:31:27.790Z,54.80
2024-02-06T06:33:54.529Z,54.91
2024-02-06T06:36:21.103Z,55.83
2024-02-06T06:38:47.661Z,54.56
2024-02-06T06:41:14.224Z,54.59
2024-02-06T06:43:40.911Z,54.30
2024-02-06T06:46:07.529Z,54.61
2024-02-06T06:48:34.273Z,54.11
2024-02-06T06:51:00.925Z,54.00
2024-02-06T06:53:27.470Z,53.91
2024-02-06T06:55:54.032Z,54.10
2024-02-06T06:58:20.677Z,54.40
2024-02-06T07:00:47.270Z,53.91
2024-02-06T07:03:13.903Z,54.35
2024-02-06T07:05:40.575Z,54.31
2024-02-06T07:08:07.201Z,53.34
2024-02-06T07:10:33.771Z,52.91
2024-02-06T07:13:00.419Z,53.36
2024-02-06T07:15:27.022Z,53.69
2024-02-06T07:17:53.625Z,52.21
2024-02-06T07:20:20.387Z,52.78
2024-02-06T07:22:47.198Z,53.08
2024-02-06T07:25:13.866Z,52.33
2024-02-06T07:27:40.484Z,51.56
2024-02-06T07:30:07.056Z,51.43
2024-02-06T07:32:33.646Z,50.45
2024-02-06T07:35:00.325Z,50.75
2024-02-06T07:37:27.170Z,49.18
2024-02-06T07:39:53.836Z,47.93
2024-02-06T07:42:20.379Z,46.87
2024-02-06T07:44:46.942Z,46.91
2024-02-06T07:47:13.838Z,48.60
2024-02-06T07:49:40.504Z,47.98
2024-02-06T07:52:07.207Z,46.84
2024-02-06T07:54:33.777Z,47.75
2024-02-06T07:57:00.327Z,47.05
2024-02-06T07:59:26.911Z,47.52
2024-02-06T08:01:53.567Z,44.65
2024-02-06T08:04:20.205Z,42.87
2024-02-06T08:06:47.005Z,41.71
2024-02-06T08:09:13.663Z,42.92
2024-02-06T08:11:40.292Z,41.59
2024-02-06T08:14:06.838Z,43.23
2024-02-06T08:16:33.506Z,42.97
2024-02-06T08:19:00.270Z,42.22
2024-02-06T08:21:26.921Z,42.36
2024-02-06T08:23:53.467Z,42.29
2024-02-06T08:26:20.133Z,42.50
2024-02-06T08:28:46.788Z,40.87
2024-02-06T08:31:13.492Z,39.56
2024-02-06T08:33:40.080Z,37.53
2024-02-06T08:36:06.794Z,37.70
2024-02-06T08:38:33.533Z,36.87
2024-02-06T08:41:00.264Z,36.32
2024-02-06T08:43:28.692Z,37.61
2024-02-06T08:45:57.250Z,39.12
2024-02-06T08:48:24.094Z,35.89
2024-02-06T08:50:51.276Z,36.27
2024-02-06T08:53:17.902Z,34.05
2024-02-06T08:55:44.547Z,32.15
2024-02-06T08:58:11.227Z,31.76
2024-02-06T09:00:37.828Z,32.15
2024-02-06T09:03:04.416Z,32.79
2024-02-06T09:05:31.233Z,33.55
2024-02-06T09:07:57.963Z,32.58
2024-02-06T09:10:25.309Z,30.12
2024-02-06T09:12:52.027Z,29.60
2024-02-06T09:15:18.609Z,27.93
2024-02-06T09:17:45.250Z,28.01
2024-02-06T09:20:11.892Z,27.90
2024-02-06T09:22:38.685Z,27.14
2024-02-06T09:25:05.407Z,25.97
2024-02-06T09:27:31.987Z,26.16
2024-02-06T09:29:58.557Z,26.47
2024-02-06T09:32:25.127Z,25.87
2024-02-06T09:34:51.804Z,24.66
2024-02-06T09:37:18.422Z,25.57
2024-02-06T09:39:45.005Z,25.48
2024-02-06T09:42:11.545Z,25.88
2024-02-06T09:44:38.096Z,26.32
2024-02-06T09:47:05.197Z,26.61
2024-02-06T09:49:32.001Z,26.28
2024-02-06T09:51:58.695Z,26.11
2024-02-06T09:54:25.324Z,28.02
2024-02-06T09:56:51.887Z,27.36
2024-02-06T09:59:18.438Z,27.29
2024-02-06T10:01:45.072Z,27.49
2024-02-06T10:04:11.888Z,27.22
2024-02-06T10:06:38.738Z,28.14
2024-02-06T10:09:05.477Z,28.36
2024-02-06T10:11:32.082Z,29.73
2024-02-06T10:13:58.652Z,30.70
2024-02-06T10:16:25.314Z,29.62
2024-02-06T10:18:52.025Z,31.19
2024-02-06T10:21:18.657Z,32.91
2024-02-06T10:23:45.215Z,33.30
2024-02-06T10:26:11.771Z,32.45
2024-02-06T10:28:38.387Z,31.41
2024-02-06T10:31:05.054Z,33.21
2024-02-06T10:33:31.876Z,32.74
2024-02-06T10:35:58.598Z,32.49
2024-02-06T10:38:25.217Z,34.58
2024-02-06T10:40:52.040Z,32.93
2024-02-06T10:45:48.360Z,33.03
2024-02-06T10:48:14.980Z,32.50
2024-02-06T10:50:42.271Z,32.27
2024-02-06T10:53:09.467Z,32.37
2024-02-06T10:55:36.154Z,31.77
2024-02-06T10:58:02.816Z,31.04
2024-02-06T11:00:29.449Z,31.58
2024-02-06T11:02:56.026Z,32.80
2024-02-06T11:05:22.776Z,32.35
2024-02-06T11:07:49.398Z,31.13
2024-02-06T11:10:16.035Z,31.85
2024-02-06T11:12:42.622Z,32.52
2024-02-06T11:15:09.200Z,32.26
2024-02-06T11:17:35.800Z,33.71
2024-02-06T11:20:02.385Z,32.93
2024-02-06T11:22:28.981Z,32.64
2024-02-06T11:24:55.581Z,32.45
2024-02-06T11:27:22.160Z,33.60
2024-02-06T11:29:48.714Z,33.91
2024-02-06T11:32:15.273Z,35.50
2024-02-06T11:34:41.979Z,35.32
2024-02-06T11:37:08.704Z,35.09
2024-02-06T11:39:35.304Z,34.98
2024-02-06T11:42:01.903Z,34.62
2024-02-06T11:44:28.467Z,35.89
2024-02-06T11:46:55.045Z,35.90
2024-02-06T11:49:21.680Z,34.37
2024-02-06T11:51:49.042Z,33.75
2024-02-06T11:54:16.055Z,34.18
2024-02-06T11:56:42.721Z,35.24
2024-02-06T11:59:09.654Z,35.22
2024-02-06T12:01:37.628Z,35.66
2024-02-06T12:04:05.717Z,36.25
2024-02-06T12:06:32.382Z,34.70
2024-02-06T12:08:59.025Z,34.74
2024-02-06T12:11:25.704Z,34.73
2024-02-06T12:13:52.800Z,35.21
2024-02-06T12:16:19.953Z,35.00
2024-02-06T12:18:47.294Z,35.20
2024-02-06T12:21:14.284Z,35.15
2024-02-06T12:23:40.879Z,34.39
2024-02-06T12:26:07.455Z,35.44
2024-02-06T12:28:34.095Z,34.47
2024-02-06T12:31:00.767Z,35.29
2024-02-06T12:33:27.469Z,35.62
2024-02-06T12:35:54.122Z,35.05
2024-02-06T12:38:20.710Z,34.52
2024-02-06T12:40:47.347Z,33.66
2024-02-06T12:43:15.151Z,33.92
2024-02-06T12:45:41.909Z,34.47
2024-02-06T12:48:08.556Z,33.92
2024-02-06T12:50:35.460Z,33.49
2024-02-06T12:53:02.127Z,33.59
2024-02-06T12:55:29.870Z,34.02
2024-02-06T12:57:57.516Z,34.40
2024-02-06T13:00:24.124Z,34.03
2024-02-06T13:02:50.747Z,34.06
2024-02-06T13:05:17.886Z,34.80
2024-02-06T13:07:44.676Z,34.73
2024-02-06T13:10:11.563Z,34.73
2024-02-06T13:12:38.259Z,34.13
2024-02-06T13:15:04.894Z,33.77
2024-02-06T13:17:31.706Z,33.08
2024-02-06T13:19:58.438Z,34.42
2024-02-06T13:22:25.257Z,33.68
2024-02-06T13:24:51.899Z,33.98
2024-02-06T13:27:18.580Z,33.13
2024-02-06T13:29:45.144Z,33.63
2024-02-06T13:32:11.792Z,34.25
2024-02-06T13:34:38.567Z,34.36
2024-02-06T13:37:05.206Z,34.72
2024-02-06T13:39:32.056Z,33.93
2024-02-06T13:41:58.637Z,33.83
2024-02-06T13:44:25.192Z,33.61
2024-02-06T13:46:51.784Z,33.27
2024-02-06T13:49:18.483Z,33.78
2024-02-06T13:51:45.094Z,33.67
2024-02-06T13:54:11.680Z,33.55
2024-02-06T13:56:39.115Z,32.47
2024-02-06T13:59:05.819Z,31.91
2024-02-06T14:01:32.402Z,30.31
2024-02-06T14:03:59.127Z,29.75
2024-02-06T14:06:25.848Z,28.25
2024-02-06T14:08:52.418Z,29.07
2024-02-06T14:11:18.998Z,27.80
2024-02-06T14:13:45.665Z,28.20
2024-02-06T14:16:12.284Z,28.07
2024-02-06T14:18:38.880Z,28.90
2024-02-06T14:21:05.442Z,28.22
2024-02-06T14:23:31.997Z,28.49
2024-02-06T14:25:58.616Z,29.61
2024-02-06T14:28:25.320Z,29.93
2024-02-06T14:30:51.916Z,31.05
2024-02-06T14:33:21.600Z,31.38
2024-02-06T14:35:48.307Z,31.99
2024-02-06T14:38:14.945Z,33.12
2024-02-06T14:40:41.543Z,33.86
2024-02-06T14:43:08.193Z,34.62
2024-02-06T14:45:34.761Z,35.38
2024-02-06T14:48:01.371Z,36.65
2024-02-06T14:50:28.077Z,37.97
2024-02-06T14:52:54.737Z,36.99
2024-02-06T14:55:21.400Z,37.23
2024-02-06T14:57:48.015Z,38.69
2024-02-06T15:00:14.571Z,38.53
2024-02-06T15:02:41.139Z,38.41
2024-02-06T15:05:08.005Z,38.90
2024-02-06T15:07:34.773Z,39.19
2024-02-06T15:10:01.629Z,38.39
2024-02-06T15:12:28.272Z,38.26
2024-02-06T15:14:54.863Z,38.99
2024-02-06T15:17:21.482Z,39.49
2024-02-06T15:19:48.325Z,38.92
2024-02-06T15:22:15.102Z,39.20
2024-02-06T15:24:41.804Z,38.52
2024-02-06T15:27:08.369Z,39.23
2024-02-06T15:29:34.992Z,39.01
2024-02-06T15:32:02.010Z,39.94
2024-02-06T15:34:28.659Z,40.24
2024-02-06T15:36:55.282Z,40.40
2024-02-06T15:39:21.845Z,41.43
2024-02-06T15:41:48.398Z,41.69
2024-02-06T15:44:16.143Z,42.31
2024-02-06T15:46:42.994Z,42.47
2024-02-06T15:49:09.661Z,41.95
2024-02-06T15:51:36.345Z,42.64
2024-02-06T15:54:02.941Z,42.31
2024-02-06T15:56:29.523Z,42.00
2024-02-06T15:58:56.172Z,42.84
2024-02-06T16:01:22.866Z,43.18
2024-02-06T16:03:49.530Z,43.33
2024-02-06T16:06:16.203Z,43.54
2024-02-06T16:08:42.800Z,43.73
2024-02-06T16:11:09.348Z,43.18
2024-02-06T16:13:35.942Z,43.76
2024-02-06T16:16:02.609Z,44.93
2024-02-06T16:18:29.313Z,45.27
2024-02-06T16:20:55.956Z,46.66
2024-02-06T16:23:22.550Z,45.76
2024-02-06T16:25:49.165Z,45.72
2024-02-06T16:28:15.790Z,45.50
2024-02-06T16:30:42.398Z,47.31
2024-02-06T16:33:09.031Z,48.28
2024-02-06T16:35:35.804Z,48.42
2024-02-06T16:38:02.411Z,48.58
2024-02-06T16:40:29.026Z,48.70
2024-02-06T16:42:55.625Z,48.48
2024-02-06T16:45:22.196Z,48.47
2024-02-06T16:47:48.816Z,48.81
2024-02-06T16:50:15.551Z,49.31
2024-02-06T16:52:42.336Z,49.43
2024-02-06T16:55:08.966Z,49.13
2024-02-06T16:57:36.938Z,49.29
2024-02-06T17:00:03.493Z,49.62
2024-02-06T17:02:30.139Z,49.16
2024-02-06T17:04:56.866Z,50.05
2024-02-06T17:07:23.549Z,50.48
2024-02-06T17:09:50.242Z,50.18
2024-02-06T17:12:16.805Z,50.49
2024-02-06T17:14:43.501Z,51.03
2024-02-06T17:17:10.057Z,51.92
2024-02-06T17:19:36.767Z,50.88
2024-02-06T17:22:03.434Z,51.78
2024-02-06T17:24:30.003Z,52.09
2024-02-06T17:26:56.568Z,51.33
2024-02-06T17:29:23.117Z,51.34
2024-02-06T17:31:49.683Z,50.50
2024-02-06T17:34:16.517Z,50.35
2024-02-06T17:36:43.226Z,52.27
2024-02-06T17:39:09.804Z,52.65
2024-02-06T17:41:36.370Z,53.32
2024-02-06T17:44:02.930Z,54.39
2024-02-06T17:46:29.788Z,55.64
2024-02-06T17:48:56.399Z,55.89
2024-02-06T17:51:23.001Z,56.70
2024-02-06T17:53:49.652Z,58.04
2024-02-06T17:56:16.311Z,57.41
2024-02-06T17:58:45.880Z,59.82
2024-02-06T18:01:14.699Z,59.41
2024-02-06T18:03:41.395Z,58.62
2024-02-06T18:06:08.000Z,58.76
2024-02-06T18:08:34.855Z,59.05
2024-02-06T18:11:01.606Z,59.72
2024-02-06T18:13:28.239Z,58.74
2024-02-06T18:15:54.820Z,59.70
2024-02-06T18:18:21.403Z,59.72
2024-02-06T18:20:47.963Z,59.37
2024-02-06T18:23:14.545Z,59.16
2024-02-06T18:25:41.147Z,59.03
2024-02-06T18:28:07.809Z,57.93
2024-02-06T18:30:34.475Z,58.04
2024-02-06T18:33:01.069Z,57.36
2024-02-06T18:35:27.697Z,56.56
2024-02-06T18:37:54.348Z,56.64
2024-02-06T18:40:20.965Z,57.04
2024-02-06T18:42:47.527Z,56.25
2024-02-06T18:45:14.183Z,57.03
2024-02-06T18:47:40.749Z,56.23
2024-02-06T18:50:07.438Z,56.08
2024-02-06T18:52:34.142Z,56.27
2024-02-06T18:55:00.740Z,55.38
2024-02-06T18:57:27.321Z,55.22
2024-02-06T18:59:53.979Z,55.98
2024-02-06T19:02:20.544Z,56.74
2024-02-06T19:04:47.249Z,56.38
2024-02-06T19:07:14.108Z,56.13
2024-02-06T19:09:40.785Z,55.95
2024-02-06T19:12:07.407Z,56.06
2024-02-06T19:14:33.959Z,56.45
2024-02-06T19:17:00.572Z,56.82
2024-02-06T19:19:27.360Z,56.57
2024-02-06T19:21:53.959Z,56.64
2024-02-06T19:24:20.518Z,56.89
2024-02-06T19:26:47.152Z,56.96
2024-02-06T19:29:13.817Z,57.23
2024-02-06T19:31:40.514Z,56.94
2024-02-06T19:34:07.208Z,57.43
2024-02-06T19:36:33.878Z,56.77
2024-02-06T19:39:00.463Z,57.38
2024-02-06T19:41:27.023Z,57.57
2024-02-06T19:43:53.747Z,58.45
2024-02-06T19:46:20.489Z,59.12
2024-02-06T19:48:47.103Z,59.11
2024-02-06T19:51:13.940Z,58.16
2024-02-06T19:53:40.592Z,59.77
2024-02-06T19:56:07.150Z,60.25
2024-02-06T19:58:33.705Z,59.96
2024-02-06T20:01:00.302Z,60.65
2024-02-06T20:03:26.882Z,59.82
2024-02-06T20:05:53.533Z,60.80
2024-02-06T20:08:20.294Z,60.32
2024-02-06T20:10:47.030Z,59.79
2024-02-06T20:13:13.637Z,60.53
2024-02-06T20:15:42.670Z,61.17
2024-02-06T20:18:10.433Z,61.13
2024-02-06T20:20:37.005Z,61.23
2024-02-06T20:23:03.592Z,61.30
2024-02-06T20:25:30.202Z,60.86
2024-02-06T20:27:56.772Z,61.52
2024-02-06T20:30:23.402Z,61.28
2024-02-06T20:32:50.008Z,61.43
2024-02-06T20:35:16.652Z,60.94
2024-02-06T20:37:43.351Z,61.27
2024-02-06T20:40:10.139Z,61.50
2024-02-06T20:42:36.769Z,61.37
2024-02-06T20:45:03.304Z,62.24
2024-02-06T20:47:29.852Z,62.08
2024-02-06T20:49:56.546Z,61.76
2024-02-06T20:52:23.241Z,63.35
2024-02-06T20:54:49.819Z,63.02
2024-02-06T20:57:16.372Z,62.05
2024-02-06T20:59:42.949Z,62.52
2024-02-06T21:02:09.652Z,62.84
2024-02-06T21:04:36.355Z,62.66
2024-02-06T21:07:03.027Z,62.84
2024-02-06T21:09:29.610Z,62.75
2024-02-06T21:11:56.182Z,61.98
2024-02-06T21:14:22.752Z,62.12
2024-02-06T21:16:49.552Z,62.30
2024-02-06T21:19:16.385Z,62.09
2024-02-06T21:21:43.184Z,62.97
2024-02-06T21:24:09.764Z,62.92
2024-02-06T21:26:37.373Z,62.81
2024-02-06T21:29:04.024Z,63.57
2024-02-06T21:31:30.689Z,63.37
2024-02-06T21:33:57.469Z,63.21
2024-02-06T21:36:24.143Z,63.45
2024-02-06T21:38:50.716Z,64.35
2024-02-06T21:41:17.291Z,63.82
2024-02-06T21:43:43.939Z,64.56
2024-02-06T21:46:10.744Z,63.78
2024-02-06T21:48:37.504Z,63.81
2024-02-06T21:51:04.285Z,64.07
2024-02-06T21:53:30.846Z,64.18
2024-02-06T21:56:04.961Z,64.80
2024-02-06T21:58:39.119Z,63.65
2024-02-06T22:01:05.792Z,63.50
2024-02-06T22:03:32.454Z,65.57
2024-02-06T22:05:59.225Z,64.24
2024-02-06T22:08:25.956Z,64.28
2024-02-06T22:10:52.661Z,64.90
2024-02-06T22:13:19.285Z,64.28
2024-02-06T22:15:45.854Z,64.10
2024-02-06T22:18:12.505Z,64.02
2024-02-06T22:20:39.148Z,65.10
2024-02-06T22:23:05.755Z,63.93
2024-02-06T22:25:32.403Z,63.36
2024-02-06T22:27:58.993Z,63.75
2024-02-06T22:30:25.758Z,63.26
2024-02-06T22:32:52.431Z,63.23
2024-02-06T22:35:19.118Z,62.56
2024-02-06T22:37:45.756Z,62.50
2024-02-06T22:40:12.348Z,62.61
2024-02-06T22:42:38.915Z,63.07
2024-02-06T22:45:05.532Z,62.73
2024-02-06T22:47:32.095Z,63.17
2024-02-06T22:49:58.753Z,62.72
2024-02-06T22:52:25.396Z,63.19
2024-02-06T22:54:51.968Z,63.71
2024-02-06T22:57:18.514Z,63.28
2024-02-06T22:59:45.217Z,62.61
2024-02-06T23:02:11.779Z,62.54
2024-02-06T23:04:38.392Z,63.48
2024-02-06T23:07:05.084Z,62.98
2024-02-06T23:09:31.688Z,62.71
2024-02-06T23:11:58.241Z,62.86
2024-02-06T23:14:24.806Z,63.81
2024-02-06T23:16:51.532Z,63.74
2024-02-06T23:19:18.267Z,63.92
2024-02-06T23:21:44.894Z,63.83
2024-02-06T23:24:11.494Z,62.74
2024-02-06T23:26:38.083Z,63.45
2024-02-06T23:29:04.653Z,63.49
2024-02-06T23:31:31.318Z,63.19
2024-02-06T23:33:57.904Z,63.65
2024-02-06T23:36:24.457Z,63.86
2024-02-06T23:39:03.878Z,63.63
2024-02-06T23:41:37.582Z,64.18
2024-02-06T23:44:04.144Z,63.69
2024-02-06T23:46:30.695Z,63.39
2024-02-06T23:48:57.368Z,63.72
2024-02-06T23:51:24.039Z,64.68
2024-02-06T23:53:50.604Z,64.09
2024-02-06T23:56:17.188Z,63.54
2024-02-06T23:58:43.832Z,63.22
